sensor_id;sensor_type;location;lat;lon;timestamp;pressure;altitude;pressure_sealevel;temperature;humidity
14383;BME280;7275;50.328;8.720;2023-04-10T00:01:35;100441.06;;;11.87;35.80
14383;BME280;7275;50.328;8.720;2023-04-10T00:04:04;100440.19;;;11.87;35.75
14383;BME280;7275;50.328;8.720;2023-04-10T00:06:33;100441.03;;;11.89;35.86
14383;BME280;7275;50.328;8.720;2023-04-10T00:09:01;100437.53;;;11.88;36.00
14383;BME280;7275;50.328;8.720;2023-04-10T00:11:28;100443.72;;;11.87;35.75
14383;BME280;7275;50.328;8.720;2023-04-10T00:13:56;100445.56;;;11.85;35.75
14383;BME280;7275;50.328;8.720;2023-04-10T00:16:23;100445.59;;;11.84;36.31
14383;BME280;7275;50.328;8.720;2023-04-10T00:18:51;100455.38;;;11.82;35.93
14383;BME280;7275;50.328;8.720;2023-04-10T00:21:19;100457.22;;;11.80;36.20
14383;BME280;7275;50.328;8.720;2023-04-10T00:23:48;100465.22;;;11.78;36.48
14383;BME280;7275;50.328;8.720;2023-04-10T00:26:15;100467.03;;;11.76;36.24
14383;BME280;7275;50.328;8.720;2023-04-10T00:28:44;100456.53;;;11.73;36.24
14383;BME280;7275;50.328;8.720;2023-04-10T00:31:11;100452.19;;;11.71;36.47
14383;BME280;7275;50.328;8.720;2023-04-10T00:33:39;100453.13;;;11.68;36.39
14383;BME280;7275;50.328;8.720;2023-04-10T00:36:06;100456.72;;;11.66;36.47
14383;BME280;7275;50.328;8.720;2023-04-10T00:38:34;100445.34;;;11.62;36.56
14383;BME280;7275;50.328;8.720;2023-04-10T00:41:05;100447.22;;;11.59;36.68
14383;BME280;7275;50.328;8.720;2023-04-10T00:43:32;100451.75;;;11.55;36.45
14383;BME280;7275;50.328;8.720;2023-04-10T00:46:00;100455.34;;;11.53;36.67
14383;BME280;7275;50.328;8.720;2023-04-10T00:48:28;100454.53;;;11.51;36.75
14383;BME280;7275;50.328;8.720;2023-04-10T00:50:56;100445.81;;;11.46;36.56
14383;BME280;7275;50.328;8.720;2023-04-10T00:53:23;100450.31;;;11.44;36.65
14383;BME280;7275;50.328;8.720;2023-04-10T00:55:51;100444.25;;;11.40;36.79
14383;BME280;7275;50.328;8.720;2023-04-10T00:58:21;100449.59;;;11.37;36.67
14383;BME280;7275;50.328;8.720;2023-04-10T01:00:50;100444.41;;;11.34;36.78
14383;BME280;7275;50.328;8.720;2023-04-10T01:03:18;100450.59;;;11.33;36.88
14383;BME280;7275;50.328;8.720;2023-04-10T01:05:51;100448.88;;;11.32;36.91
14383;BME280;7275;50.328;8.720;2023-04-10T01:08:32;100455.91;;;11.33;37.11
14383;BME280;7275;50.328;8.720;2023-04-10T01:11:06;100457.66;;;11.34;36.71
14383;BME280;7275;50.328;8.720;2023-04-10T01:13:44;100443.53;;;11.34;36.86
14383;BME280;7275;50.328;8.720;2023-04-10T01:16:17;100455.94;;;11.32;36.77
14383;BME280;7275;50.328;8.720;2023-04-10T01:18:49;100453.34;;;11.30;36.54
14383;BME280;7275;50.328;8.720;2023-04-10T01:21:20;100447.19;;;11.30;36.60
14383;BME280;7275;50.328;8.720;2023-04-10T01:23:57;100446.38;;;11.27;36.98
14383;BME280;7275;50.328;8.720;2023-04-10T01:26:38;100450.84;;;11.25;36.89
14383;BME280;7275;50.328;8.720;2023-04-10T01:29:13;100444.72;;;11.23;37.16
14383;BME280;7275;50.328;8.720;2023-04-10T01:31:49;100457.19;;;11.20;36.86
14383;BME280;7275;50.328;8.720;2023-04-10T01:34:20;100455.47;;;11.17;37.15
14383;BME280;7275;50.328;8.720;2023-04-10T01:36:54;100454.66;;;11.15;37.24
14383;BME280;7275;50.328;8.720;2023-04-10T01:39:22;100454.66;;;11.14;36.95
14383;BME280;7275;50.328;8.720;2023-04-10T01:41:55;100453.78;;;11.15;36.88
14383;BME280;7275;50.328;8.720;2023-04-10T01:44:28;100444.91;;;11.16;37.07
14383;BME280;7275;50.328;8.720;2023-04-10T01:46:56;100445.78;;;11.16;36.96
14383;BME280;7275;50.328;8.720;2023-04-10T01:49:26;100445.78;;;11.16;37.32
14383;BME280;7275;50.328;8.720;2023-04-10T01:51:55;100448.53;;;11.13;37.17
14383;BME280;7275;50.328;8.720;2023-04-10T01:54:26;100448.53;;;11.13;37.20
14383;BME280;7275;50.328;8.720;2023-04-10T01:56:54;100446.84;;;11.11;37.54
14383;BME280;7275;50.328;8.720;2023-04-10T01:59:22;100434.47;;;11.11;37.13
14383;BME280;7275;50.328;8.720;2023-04-10T02:01:55;100442.38;;;11.13;37.32
14383;BME280;7275;50.328;8.720;2023-04-10T02:04:23;100438.78;;;11.14;37.30
14383;BME280;7275;50.328;8.720;2023-04-10T02:07:01;100425.56;;;11.14;37.05
14383;BME280;7275;50.328;8.720;2023-04-10T02:09:36;100429.13;;;11.13;37.23
14383;BME280;7275;50.328;8.720;2023-04-10T02:12:09;100426.53;;;11.11;37.22
14383;BME280;7275;50.328;8.720;2023-04-10T02:14:41;100429.22;;;11.10;37.09
14383;BME280;7275;50.328;8.720;2023-04-10T02:17:13;100416.03;;;11.08;37.37
14383;BME280;7275;50.328;8.720;2023-04-10T02:19:44;100425.00;;;11.03;37.13
14383;BME280;7275;50.328;8.720;2023-04-10T02:22:14;100418.03;;;11.00;37.19
14383;BME280;7275;50.328;8.720;2023-04-10T02:24:42;100419.75;;;11.01;37.16
14383;BME280;7275;50.328;8.720;2023-04-10T02:27:10;100416.28;;;10.99;36.98
14383;BME280;7275;50.328;8.720;2023-04-10T02:29:37;100419.78;;;11.00;37.04
14383;BME280;7275;50.328;8.720;2023-04-10T02:32:05;100418.91;;;10.99;37.46
14383;BME280;7275;50.328;8.720;2023-04-10T02:34:34;100426.91;;;10.98;37.63
14383;BME280;7275;50.328;8.720;2023-04-10T02:37:02;100424.38;;;10.95;37.24
14383;BME280;7275;50.328;8.720;2023-04-10T02:39:29;100422.66;;;10.92;37.31
14383;BME280;7275;50.328;8.720;2023-04-10T02:41:57;100425.34;;;10.91;37.38
14383;BME280;7275;50.328;8.720;2023-04-10T02:44:24;100430.66;;;10.91;37.46
14383;BME280;7275;50.328;8.720;2023-04-10T02:46:52;100425.34;;;10.91;37.30
14383;BME280;7275;50.328;8.720;2023-04-10T02:49:20;100434.13;;;10.93;37.38
14383;BME280;7275;50.328;8.720;2023-04-10T02:51:48;100431.41;;;10.94;37.46
14383;BME280;7275;50.328;8.720;2023-04-10T02:54:16;100425.25;;;10.94;37.31
14383;BME280;7275;50.328;8.720;2023-04-10T02:56:44;100424.38;;;10.93;37.53
14383;BME280;7275;50.328;8.720;2023-04-10T02:59:11;100424.47;;;10.90;37.51
14383;BME280;7275;50.328;8.720;2023-04-10T03:01:39;100419.19;;;10.90;37.86
14383;BME280;7275;50.328;8.720;2023-04-10T03:04:07;100410.38;;;10.90;37.59
14383;BME280;7275;50.328;8.720;2023-04-10T03:06:34;100423.56;;;10.91;37.36
14383;BME280;7275;50.328;8.720;2023-04-10T03:09:03;100412.16;;;10.89;37.47
14383;BME280;7275;50.328;8.720;2023-04-10T03:11:31;100416.59;;;10.89;37.61
14383;BME280;7275;50.328;8.720;2023-04-10T03:13:59;100421.03;;;10.87;37.56
14383;BME280;7275;50.328;8.720;2023-04-10T03:16:27;100411.38;;;10.86;37.87
14383;BME280;7275;50.328;8.720;2023-04-10T03:18:55;100409.66;;;10.83;37.45
14383;BME280;7275;50.328;8.720;2023-04-10T03:21:22;100403.59;;;10.80;37.87
14383;BME280;7275;50.328;8.720;2023-04-10T03:23:50;100406.31;;;10.78;37.59
14383;BME280;7275;50.328;8.720;2023-04-10T03:26:19;100403.72;;;10.75;37.53
14383;BME280;7275;50.328;8.720;2023-04-10T03:28:49;100400.31;;;10.72;37.67
14383;BME280;7275;50.328;8.720;2023-04-10T03:31:17;100401.25;;;10.69;37.62
14383;BME280;7275;50.328;8.720;2023-04-10T03:33:44;100397.78;;;10.67;38.15
14383;BME280;7275;50.328;8.720;2023-04-10T03:36:12;100395.19;;;10.64;37.76
14383;BME280;7275;50.328;8.720;2023-04-10T03:38:39;100395.34;;;10.60;38.08
14383;BME280;7275;50.328;8.720;2023-04-10T03:41:07;100394.50;;;10.58;38.05
14383;BME280;7275;50.328;8.720;2023-04-10T03:43:36;100384.00;;;10.55;38.41
14383;BME280;7275;50.328;8.720;2023-04-10T03:46:03;100387.47;;;10.57;37.88
14383;BME280;7275;50.328;8.720;2023-04-10T03:48:31;100382.97;;;10.60;38.03
14383;BME280;7275;50.328;8.720;2023-04-10T03:50:59;100392.59;;;10.63;38.41
14383;BME280;7275;50.328;8.720;2023-04-10T03:53:27;100391.72;;;10.64;38.12
14383;BME280;7275;50.328;8.720;2023-04-10T03:55:54;100379.38;;;10.63;38.24
14383;BME280;7275;50.328;8.720;2023-04-10T03:58:22;100387.31;;;10.63;38.00
14383;BME280;7275;50.328;8.720;2023-04-10T04:00:51;100382.09;;;10.61;38.49
14383;BME280;7275;50.328;8.720;2023-04-10T04:03:18;100383.84;;;10.61;38.44
14383;BME280;7275;50.328;8.720;2023-04-10T04:05:46;100381.28;;;10.58;38.30
14383;BME280;7275;50.328;8.720;2023-04-10T04:08:14;100384.84;;;10.57;38.39
14383;BME280;7275;50.328;8.720;2023-04-10T04:10:41;100382.19;;;10.57;38.26
14383;BME280;7275;50.328;8.720;2023-04-10T04:13:09;100384.97;;;10.52;38.66
14383;BME280;7275;50.328;8.720;2023-04-10T04:15:36;100385.00;;;10.51;38.62
14383;BME280;7275;50.328;8.720;2023-04-10T04:18:05;100388.59;;;10.48;38.63
14383;BME280;7275;50.328;8.720;2023-04-10T04:20:33;100384.22;;;10.47;38.58
14383;BME280;7275;50.328;8.720;2023-04-10T04:23:00;100376.28;;;10.47;38.54
14383;BME280;7275;50.328;8.720;2023-04-10T04:25:28;100384.25;;;10.45;38.39
14383;BME280;7275;50.328;8.720;2023-04-10T04:27:57;100390.44;;;10.44;38.61
14383;BME280;7275;50.328;8.720;2023-04-10T04:30:25;100382.59;;;10.41;38.67
14383;BME280;7275;50.328;8.720;2023-04-10T04:32:52;100380.03;;;10.38;38.96
14383;BME280;7275;50.328;8.720;2023-04-10T04:35:22;100382.75;;;10.35;38.89
14383;BME280;7275;50.328;8.720;2023-04-10T04:37:49;100383.66;;;10.34;38.71
14383;BME280;7275;50.328;8.720;2023-04-10T04:40:17;100389.84;;;10.33;38.77
14383;BME280;7275;50.328;8.720;2023-04-10T04:42:44;100386.38;;;10.31;39.16
14383;BME280;7275;50.328;8.720;2023-04-10T04:45:12;100389.94;;;10.30;39.09
14383;BME280;7275;50.328;8.720;2023-04-10T04:47:39;100390.78;;;10.31;38.96
14383;BME280;7275;50.328;8.720;2023-04-10T04:50:08;100388.97;;;10.34;38.89
14383;BME280;7275;50.328;8.720;2023-04-10T04:52:37;100390.63;;;10.38;39.05
14383;BME280;7275;50.328;8.720;2023-04-10T04:55:06;100387.88;;;10.41;39.17
14383;BME280;7275;50.328;8.720;2023-04-10T04:57:33;100387.75;;;10.46;38.89
14383;BME280;7275;50.328;8.720;2023-04-10T05:00:01;100393.91;;;10.47;38.99
14383;BME280;7275;50.328;8.720;2023-04-10T05:02:28;100389.50;;;10.47;39.30
14383;BME280;7275;50.328;8.720;2023-04-10T05:04:56;100393.97;;;10.45;39.26
14383;BME280;7275;50.328;8.720;2023-04-10T05:07:24;100397.47;;;10.45;39.18
14383;BME280;7275;50.328;8.720;2023-04-10T05:09:53;100395.69;;;10.46;39.61
14383;BME280;7275;50.328;8.720;2023-04-10T05:12:21;100400.00;;;10.50;39.56
14383;BME280;7275;50.328;8.720;2023-04-10T05:14:48;100391.03;;;10.56;39.34
14383;BME280;7275;50.328;8.720;2023-04-10T05:17:16;100396.13;;;10.63;39.34
14383;BME280;7275;50.328;8.720;2023-04-10T05:19:43;100391.53;;;10.70;39.54
14383;BME280;7275;50.328;8.720;2023-04-10T05:22:11;100396.56;;;10.80;39.67
14383;BME280;7275;50.328;8.720;2023-04-10T05:24:38;100393.75;;;10.86;39.17
14383;BME280;7275;50.328;8.720;2023-04-10T05:27:07;100401.56;;;10.89;39.26
14383;BME280;7275;50.328;8.720;2023-04-10T05:29:35;100398.81;;;10.94;39.19
14383;BME280;7275;50.328;8.720;2023-04-10T05:32:02;100389.88;;;10.98;39.67
14383;BME280;7275;50.328;8.720;2023-04-10T05:34:30;100396.84;;;11.00;39.40
14383;BME280;7275;50.328;8.720;2023-04-10T05:36:57;100398.44;;;11.06;39.38
14383;BME280;7275;50.328;8.720;2023-04-10T05:39:25;100397.44;;;11.11;39.80
14383;BME280;7275;50.328;8.720;2023-04-10T05:41:52;100402.50;;;11.19;39.80
14383;BME280;7275;50.328;8.720;2023-04-10T05:44:22;100402.25;;;11.28;39.96
14383;BME280;7275;50.328;8.720;2023-04-10T05:46:49;100400.25;;;11.36;39.60
14383;BME280;7275;50.328;8.720;2023-04-10T05:49:17;100399.09;;;11.45;39.90
14383;BME280;7275;50.328;8.720;2023-04-10T05:51:44;100403.25;;;11.53;39.99
14383;BME280;7275;50.328;8.720;2023-04-10T05:54:15;100400.31;;;11.62;39.92
14383;BME280;7275;50.328;8.720;2023-04-10T05:56:43;100400.09;;;11.71;39.83
14383;BME280;7275;50.328;8.720;2023-04-10T05:59:10;100405.00;;;11.83;39.64
14383;BME280;7275;50.328;8.720;2023-04-10T06:01:40;100397.66;;;11.93;39.82
14383;BME280;7275;50.328;8.720;2023-04-10T06:04:08;100406.91;;;12.06;39.58
14383;BME280;7275;50.328;8.720;2023-04-10T06:06:37;100394.19;;;12.17;39.91
14383;BME280;7275;50.328;8.720;2023-04-10T06:09:05;100395.53;;;12.30;40.03
14383;BME280;7275;50.328;8.720;2023-04-10T06:11:32;100399.53;;;12.42;40.06
14383;BME280;7275;50.328;8.720;2023-04-10T06:14:00;100398.38;;;12.50;40.10
14383;BME280;7275;50.328;8.720;2023-04-10T06:16:28;100394.63;;;12.56;40.03
14383;BME280;7275;50.328;8.720;2023-04-10T06:18:57;100391.88;;;12.59;39.94
14383;BME280;7275;50.328;8.720;2023-04-10T06:21:25;100387.19;;;12.67;40.01
14383;BME280;7275;50.328;8.720;2023-04-10T06:23:53;100391.25;;;12.77;40.24
14383;BME280;7275;50.328;8.720;2023-04-10T06:26:20;100395.28;;;12.87;40.26
14383;BME280;7275;50.328;8.720;2023-04-10T06:28:48;100389.59;;;12.98;40.18
14383;BME280;7275;50.328;8.720;2023-04-10T06:31:18;100383.94;;;13.08;40.28
14383;BME280;7275;50.328;8.720;2023-04-10T06:33:47;100381.88;;;13.16;40.11
14383;BME280;7275;50.328;8.720;2023-04-10T06:36:16;100379.75;;;13.26;40.09
14383;BME280;7275;50.328;8.720;2023-04-10T06:38:44;100384.78;;;13.33;40.19
14383;BME280;7275;50.328;8.720;2023-04-10T06:41:11;100386.16;;;13.43;40.35
14383;BME280;7275;50.328;8.720;2023-04-10T06:43:39;100388.47;;;13.52;40.44
14383;BME280;7275;50.328;8.720;2023-04-10T06:46:06;100389.00;;;13.62;40.10
14383;BME280;7275;50.328;8.720;2023-04-10T06:48:34;100396.66;;;13.70;40.23
14383;BME280;7275;50.328;8.720;2023-04-10T06:51:02;100384.81;;;13.78;40.29
14383;BME280;7275;50.328;8.720;2023-04-10T06:53:31;100387.09;;;13.87;40.27
14383;BME280;7275;50.328;8.720;2023-04-10T06:55:58;100388.34;;;14.00;40.04
14383;BME280;7275;50.328;8.720;2023-04-10T06:58:29;100387.91;;;14.11;39.74
14383;BME280;7275;50.328;8.720;2023-04-10T07:00:56;100385.75;;;14.20;39.47
14383;BME280;7275;50.328;8.720;2023-04-10T07:03:26;100386.16;;;14.33;39.42
14383;BME280;7275;50.328;8.720;2023-04-10T07:05:54;100390.16;;;14.43;39.28
14383;BME280;7275;50.328;8.720;2023-04-10T07:08:22;100379.91;;;14.54;39.11
14383;BME280;7275;50.328;8.720;2023-04-10T07:10:51;100382.97;;;14.65;39.06
14383;BME280;7275;50.328;8.720;2023-04-10T07:13:18;100376.41;;;14.74;38.86
14383;BME280;7275;50.328;8.720;2023-04-10T07:15:46;100373.34;;;14.83;38.90
14383;BME280;7275;50.328;8.720;2023-04-10T07:18:13;100375.56;;;14.92;38.84
14383;BME280;7275;50.328;8.720;2023-04-10T07:20:41;100370.66;;;15.03;38.72
14383;BME280;7275;50.328;8.720;2023-04-10T07:23:08;100373.72;;;15.14;38.74
14383;BME280;7275;50.328;8.720;2023-04-10T07:25:36;100373.16;;;15.26;38.56
14383;BME280;7275;50.328;8.720;2023-04-10T07:28:05;100370.91;;;15.36;38.57
14383;BME280;7275;50.328;8.720;2023-04-10T07:30:32;100370.63;;;15.42;38.59
14383;BME280;7275;50.328;8.720;2023-04-10T07:33:00;100367.75;;;15.48;38.55
14383;BME280;7275;50.328;8.720;2023-04-10T07:35:28;100372.00;;;15.52;38.53
14383;BME280;7275;50.328;8.720;2023-04-10T07:37:55;100366.38;;;15.58;38.46
14383;BME280;7275;50.328;8.720;2023-04-10T07:40:23;100377.44;;;15.67;38.47
14383;BME280;7275;50.328;8.720;2023-04-10T07:42:50;100367.16;;;15.78;38.45
14383;BME280;7275;50.328;8.720;2023-04-10T07:45:20;100363.88;;;15.90;38.52
14383;BME280;7275;50.328;8.720;2023-04-10T07:47:48;100357.94;;;16.02;38.55
14383;BME280;7275;50.328;8.720;2023-04-10T07:50:15;100359.22;;;16.13;38.32
14383;BME280;7275;50.328;8.720;2023-04-10T07:52:43;100357.06;;;16.21;38.38
14383;BME280;7275;50.328;8.720;2023-04-10T07:55:10;100351.41;;;16.27;38.10
14383;BME280;7275;50.328;8.720;2023-04-10T07:57:38;100344.75;;;16.35;38.27
14383;BME280;7275;50.328;8.720;2023-04-10T08:00:08;100350.34;;;16.48;38.12
14383;BME280;7275;50.328;8.720;2023-04-10T08:02:37;100339.19;;;16.57;38.18
14383;BME280;7275;50.328;8.720;2023-04-10T08:05:06;100341.22;;;16.69;38.07
14383;BME280;7275;50.328;8.720;2023-04-10T08:07:34;100338.72;;;16.83;38.03
14383;BME280;7275;50.328;8.720;2023-04-10T08:10:04;100337.06;;;16.98;38.16
14383;BME280;7275;50.328;8.720;2023-04-10T08:12:32;100333.63;;;17.11;37.98
14383;BME280;7275;50.328;8.720;2023-04-10T08:15:00;100333.56;;;17.28;37.83
14383;BME280;7275;50.328;8.720;2023-04-10T08:17:27;100330.75;;;17.47;37.82
14383;BME280;7275;50.328;8.720;2023-04-10T08:19:56;100328.22;;;17.61;37.61
14383;BME280;7275;50.328;8.720;2023-04-10T08:22:24;100332.06;;;17.71;37.70
14383;BME280;7275;50.328;8.720;2023-04-10T08:24:51;100332.69;;;17.76;37.39
14383;BME280;7275;50.328;8.720;2023-04-10T08:27:19;100324.22;;;17.84;37.56
14383;BME280;7275;50.328;8.720;2023-04-10T08:29:46;100329.06;;;17.93;37.64
14383;BME280;7275;50.328;8.720;2023-04-10T08:32:14;100316.81;;;18.04;37.44
14383;BME280;7275;50.328;8.720;2023-04-10T08:34:41;100318.75;;;18.16;37.19
14383;BME280;7275;50.328;8.720;2023-04-10T08:37:10;100296.53;;;18.30;37.33
14383;BME280;7275;50.328;8.720;2023-04-10T08:39:40;100303.94;;;18.70;37.02
14383;BME280;7275;50.328;8.720;2023-04-10T08:42:08;100294.00;;;19.29;36.32
14383;BME280;7275;50.328;8.720;2023-04-10T08:44:36;100288.00;;;19.92;35.89
14383;BME280;7275;50.328;8.720;2023-04-10T08:47:05;100285.09;;;20.61;34.97
14383;BME280;7275;50.328;8.720;2023-04-10T08:49:40;100282.75;;;21.32;34.54
14383;BME280;7275;50.328;8.720;2023-04-10T08:52:14;100295.28;;;22.17;33.75
14383;BME280;7275;50.328;8.720;2023-04-10T08:54:46;100273.97;;;22.83;33.40
14383;BME280;7275;50.328;8.720;2023-04-10T08:57:15;100274.22;;;23.47;33.01
14383;BME280;7275;50.328;8.720;2023-04-10T08:59:46;100267.69;;;24.14;32.74
14383;BME280;7275;50.328;8.720;2023-04-10T09:02:14;100270.25;;;24.89;31.74
14383;BME280;7275;50.328;8.720;2023-04-10T09:04:46;100266.31;;;25.53;31.42
14383;BME280;7275;50.328;8.720;2023-04-10T09:07:16;100253.13;;;25.98;30.82
14383;BME280;7275;50.328;8.720;2023-04-10T09:09:44;100244.44;;;26.33;30.52
14383;BME280;7275;50.328;8.720;2023-04-10T09:12:12;100256.25;;;26.70;30.01
14383;BME280;7275;50.328;8.720;2023-04-10T09:14:41;100238.50;;;26.95;29.60
14383;BME280;7275;50.328;8.720;2023-04-10T09:17:14;100233.47;;;27.09;29.23
14383;BME280;7275;50.328;8.720;2023-04-10T09:19:42;100233.66;;;27.25;28.67
14383;BME280;7275;50.328;8.720;2023-04-10T09:22:11;100232.44;;;27.47;28.66
14383;BME280;7275;50.328;8.720;2023-04-10T09:24:41;100215.09;;;27.57;28.12
14383;BME280;7275;50.328;8.720;2023-04-10T09:27:09;100215.19;;;27.65;28.06
14383;BME280;7275;50.328;8.720;2023-04-10T09:29:41;100208.34;;;27.79;27.88
14383;BME280;7275;50.328;8.720;2023-04-10T09:32:10;100200.94;;;27.99;27.93
14383;BME280;7275;50.328;8.720;2023-04-10T09:34:52;100194.47;;;28.17;27.61
14383;BME280;7275;50.328;8.720;2023-04-10T09:37:20;100192.03;;;28.32;27.63
14383;BME280;7275;50.328;8.720;2023-04-10T09:39:49;100190.97;;;28.25;27.41
14383;BME280;7275;50.328;8.720;2023-04-10T09:42:29;100187.38;;;27.89;26.97
14383;BME280;7275;50.328;8.720;2023-04-10T09:44:57;100176.47;;;27.54;27.03
14383;BME280;7275;50.328;8.720;2023-04-10T09:47:25;100182.03;;;27.08;27.38
14383;BME280;7275;50.328;8.720;2023-04-10T09:49:55;100181.31;;;26.59;27.26
14383;BME280;7275;50.328;8.720;2023-04-10T09:52:26;100177.69;;;26.12;26.96
14383;BME280;7275;50.328;8.720;2023-04-10T09:54:57;100172.41;;;25.82;27.57
14383;BME280;7275;50.328;8.720;2023-04-10T09:57:27;100165.13;;;25.73;28.01
14383;BME280;7275;50.328;8.720;2023-04-10T09:59:56;100173.25;;;25.83;27.72
14383;BME280;7275;50.328;8.720;2023-04-10T10:02:25;100156.72;;;25.86;27.02
14383;BME280;7275;50.328;8.720;2023-04-10T10:04:56;100153.84;;;25.87;26.81
14383;BME280;7275;50.328;8.720;2023-04-10T10:07:26;100149.16;;;25.89;26.42
14383;BME280;7275;50.328;8.720;2023-04-10T10:09:57;100138.31;;;25.80;27.01
14383;BME280;7275;50.328;8.720;2023-04-10T10:12:28;100153.44;;;25.73;26.72
14383;BME280;7275;50.328;8.720;2023-04-10T10:15:00;100132.03;;;25.79;26.82
14383;BME280;7275;50.328;8.720;2023-04-10T10:17:34;100141.03;;;25.99;26.63
14383;BME280;7275;50.328;8.720;2023-04-10T10:20:08;100139.72;;;26.32;26.99
14383;BME280;7275;50.328;8.720;2023-04-10T10:22:36;100127.34;;;26.66;26.32
14383;BME280;7275;50.328;8.720;2023-04-10T10:25:06;100113.81;;;26.93;25.99
14383;BME280;7275;50.328;8.720;2023-04-10T10:27:36;100105.84;;;27.36;25.43
14383;BME280;7275;50.328;8.720;2023-04-10T10:30:05;100107.84;;;27.87;24.84
14383;BME280;7275;50.328;8.720;2023-04-10T10:32:54;100095.34;;;28.37;24.89
14383;BME280;7275;50.328;8.720;2023-04-10T10:35:22;100090.69;;;28.89;24.87
14383;BME280;7275;50.328;8.720;2023-04-10T10:37:53;100094.06;;;29.25;24.38
14383;BME280;7275;50.328;8.720;2023-04-10T10:40:27;100090.75;;;29.55;23.40
14383;BME280;7275;50.328;8.720;2023-04-10T10:43:03;100073.59;;;29.79;23.29
14383;BME280;7275;50.328;8.720;2023-04-10T10:45:37;100074.94;;;29.91;22.73
14383;BME280;7275;50.328;8.720;2023-04-10T10:48:07;100066.56;;;29.92;22.77
14383;BME280;7275;50.328;8.720;2023-04-10T10:50:50;100063.34;;;29.89;22.96
14383;BME280;7275;50.328;8.720;2023-04-10T10:53:32;100067.09;;;29.80;23.26
14383;BME280;7275;50.328;8.720;2023-04-10T10:56:37;100053.63;;;29.70;22.87
14383;BME280;7275;50.328;8.720;2023-04-10T10:59:04;100066.59;;;29.76;22.82
14383;BME280;7275;50.328;8.720;2023-04-10T11:01:32;100057.56;;;29.76;22.73
14383;BME280;7275;50.328;8.720;2023-04-10T11:03:59;100058.56;;;29.75;22.84
14383;BME280;7275;50.328;8.720;2023-04-10T11:06:57;100047.69;;;29.83;22.76
14383;BME280;7275;50.328;8.720;2023-04-10T11:09:44;100043.03;;;30.08;22.61
14383;BME280;7275;50.328;8.720;2023-04-10T11:12:14;100040.75;;;30.27;22.15
14383;BME280;7275;50.328;8.720;2023-04-10T11:14:42;100024.94;;;30.31;21.77
14383;BME280;7275;50.328;8.720;2023-04-10T11:17:11;100016.88;;;30.29;21.85
14383;BME280;7275;50.328;8.720;2023-04-10T11:19:58;100017.59;;;30.39;22.36
14383;BME280;7275;50.328;8.720;2023-04-10T11:22:26;100007.78;;;30.53;22.02
14383;BME280;7275;50.328;8.720;2023-04-10T11:24:56;100007.69;;;30.38;21.72
14383;BME280;7275;50.328;8.720;2023-04-10T11:27:38;99999.16;;;30.25;22.11
14383;BME280;7275;50.328;8.720;2023-04-10T11:30:25;100008.38;;;30.24;22.02
14383;BME280;7275;50.328;8.720;2023-04-10T11:32:53;99995.28;;;30.12;22.10
14383;BME280;7275;50.328;8.720;2023-04-10T11:35:21;100004.00;;;30.07;22.18
14383;BME280;7275;50.328;8.720;2023-04-10T11:37:48;99988.00;;;29.88;22.30
14383;BME280;7275;50.328;8.720;2023-04-10T11:40:17;99993.47;;;29.64;22.15
14383;BME280;7275;50.328;8.720;2023-04-10T11:42:46;99990.06;;;29.30;22.30
14383;BME280;7275;50.328;8.720;2023-04-10T11:45:25;99992.19;;;28.94;22.34
14383;BME280;7275;50.328;8.720;2023-04-10T11:47:53;99981.59;;;28.75;22.63
14383;BME280;7275;50.328;8.720;2023-04-10T11:50:21;99977.34;;;28.72;22.98
14383;BME280;7275;50.328;8.720;2023-04-10T11:52:49;99961.00;;;28.64;22.71
14383;BME280;7275;50.328;8.720;2023-04-10T11:55:35;99961.56;;;28.42;23.16
14383;BME280;7275;50.328;8.720;2023-04-10T11:58:20;99966.03;;;28.17;23.36
14383;BME280;7275;50.328;8.720;2023-04-10T12:00:57;99956.53;;;27.96;23.55
14383;BME280;7275;50.328;8.720;2023-04-10T12:03:36;99976.75;;;27.67;23.37
14383;BME280;7275;50.328;8.720;2023-04-10T12:06:09;99948.50;;;27.35;23.81
14383;BME280;7275;50.328;8.720;2023-04-10T12:08:38;99947.63;;;27.17;23.71
14383;BME280;7275;50.328;8.720;2023-04-10T12:11:08;99945.75;;;27.00;24.13
14383;BME280;7275;50.328;8.720;2023-04-10T12:13:38;99960.66;;;26.78;24.07
14383;BME280;7275;50.328;8.720;2023-04-10T12:16:07;99948.50;;;26.55;24.42
14383;BME280;7275;50.328;8.720;2023-04-10T12:18:35;99940.63;;;26.34;24.57
14383;BME280;7275;50.328;8.720;2023-04-10T12:21:04;99946.84;;;26.17;24.78
14383;BME280;7275;50.328;8.720;2023-04-10T12:23:36;99936.91;;;26.08;24.88
14383;BME280;7275;50.328;8.720;2023-04-10T12:26:09;99925.31;;;26.06;24.84
14383;BME280;7275;50.328;8.720;2023-04-10T12:28:40;99920.16;;;26.22;25.00
14383;BME280;7275;50.328;8.720;2023-04-10T12:31:08;99912.59;;;26.43;24.71
14383;BME280;7275;50.328;8.720;2023-04-10T12:33:36;99910.84;;;26.69;24.50
14383;BME280;7275;50.328;8.720;2023-04-10T12:36:04;99922.97;;;26.92;24.40
14383;BME280;7275;50.328;8.720;2023-04-10T12:38:37;99908.31;;;27.03;24.43
14383;BME280;7275;50.328;8.720;2023-04-10T12:41:06;99907.22;;;27.14;24.99
14383;BME280;7275;50.328;8.720;2023-04-10T12:43:35;99906.81;;;27.26;24.29
14383;BME280;7275;50.328;8.720;2023-04-10T12:46:06;99893.84;;;27.38;24.01
14383;BME280;7275;50.328;8.720;2023-04-10T12:48:34;99890.66;;;27.42;24.14
14383;BME280;7275;50.328;8.720;2023-04-10T12:51:02;99886.78;;;27.45;24.17
14383;BME280;7275;50.328;8.720;2023-04-10T12:53:30;99879.97;;;27.41;24.18
14383;BME280;7275;50.328;8.720;2023-04-10T12:56:00;99873.75;;;27.31;24.07
14383;BME280;7275;50.328;8.720;2023-04-10T12:58:28;99874.75;;;27.30;23.78
14383;BME280;7275;50.328;8.720;2023-04-10T13:00:58;99882.06;;;27.29;23.98
14383;BME280;7275;50.328;8.720;2023-04-10T13:03:27;99876.44;;;27.31;23.79
14383;BME280;7275;50.328;8.720;2023-04-10T13:05:55;99853.56;;;27.33;23.70
14383;BME280;7275;50.328;8.720;2023-04-10T13:08:23;99852.94;;;27.39;23.56
14383;BME280;7275;50.328;8.720;2023-04-10T13:10:51;99848.91;;;27.43;23.64
14383;BME280;7275;50.328;8.720;2023-04-10T13:13:20;99847.94;;;27.52;23.93
14383;BME280;7275;50.328;8.720;2023-04-10T13:15:47;99850.88;;;27.59;23.52